Time;durP1;ratioP1;P1;durP2;ratioP2;P2;SDS_P1;SDS_P2;PMS_P1;PMS_P2;Temp;Humidity;BMP_temperature;BMP_pressure;BME280_temperature;BME280_humidity;BME280_pressure;Samples;Min_cycle;Max_cycle;Signal;HPM_P1;HPM_P2
2021/12/05 00:21:41;;;;;;;;;1.00;1.00;;;;;;;;5074502;28;45248;-86
2021/12/05 00:24:12;;;;;;;;;1.50;1.00;;;;;;;;5071504;28;45117;-86
2021/12/05 00:26:38;;;;;;;;;0.50;0.00;;;;;;;;5070346;28;47323;-86
2021/12/05 00:29:23;;;;;;;;;0.25;0.00;;;;;;;;5071553;28;45289;-86
2021/12/05 00:34:45;;;;;;;;;0.00;0.00;;;;;;;;5089194;28;45108;-86
2021/12/05 00:50:17;;;;;;;;;1.00;1.00;;;;;;;;5068992;28;45333;-86
2021/12/05 01:03:11;;;;;;;;;0.00;0.00;;;;;;;;5068694;28;45159;-86
2021/12/05 01:06:20;;;;;;;;;0.25;0.25;;;;;;;;5050020;28;45653;-86
2021/12/05 01:08:50;;;;;;;;;0.75;0.00;;;;;;;;5066878;28;46108;-86
2021/12/05 01:16:34;;;;;;;;;1.00;0.00;;;;;;;;5088608;28;45230;-86
2021/12/05 01:18:59;;;;;;;;;0.00;0.00;;;;;;;;5070326;28;46986;-86
2021/12/05 01:21:26;;;;;;;;;0.00;0.00;;;;;;;;5070122;28;45328;-86
2021/12/05 01:26:36;;;;;;;;;0.00;0.00;;;;;;;;5088664;28;45265;-87
2021/12/05 01:37:19;;;;;;;;;0.00;0.00;;;;;;;;5089230;28;45336;-87
2021/12/05 02:03:08;;;;;;;;;0.00;0.00;;;;;;;;5089016;27;45369;-86
2021/12/05 02:08:45;;;;;;;;;0.00;0.00;;;;;;;;5091759;28;45200;-86
2021/12/05 02:31:17;;;;;;;;;0.00;0.00;;;;;;;;5091543;28;44954;-87
2021/12/05 02:38:48;;;;;;;;;0.00;0.00;;;;;;;;5091156;28;45216;-86
2021/12/05 02:43:45;;;;;;;;;1.00;1.00;;;;;;;;5090614;28;45367;-86
2021/12/05 02:46:12;;;;;;;;;1.00;1.00;;;;;;;;5053968;28;45367;-86
2021/12/05 02:48:38;;;;;;;;;0.00;0.00;;;;;;;;5052190;28;45242;-86
2021/12/05 02:51:09;;;;;;;;;0.00;0.00;;;;;;;;5052782;28;45163;-86
2021/12/05 02:53:41;;;;;;;;;1.00;0.00;;;;;;;;5052529;28;47053;-86
2021/12/05 02:56:07;;;;;;;;;0.00;0.00;;;;;;;;5052861;28;45332;-86
2021/12/05 03:01:13;;;;;;;;;0.00;0.00;;;;;;;;5070920;28;45070;-86
2021/12/05 03:03:39;;;;;;;;;0.00;0.00;;;;;;;;5051917;28;47594;-87
2021/12/05 03:06:16;;;;;;;;;0.00;0.00;;;;;;;;5052455;28;45177;-86
2021/12/05 03:08:41;;;;;;;;;0.00;0.00;;;;;;;;5052198;28;45114;-86
2021/12/05 03:11:06;;;;;;;;;0.00;0.00;;;;;;;;5052363;28;45446;-86
2021/12/05 03:13:33;;;;;;;;;0.00;0.00;;;;;;;;5062904;28;47205;-86
2021/12/05 03:15:58;;;;;;;;;1.00;0.00;;;;;;;;5071399;28;46204;-86
2021/12/05 03:18:24;;;;;;;;;0.75;0.75;;;;;;;;5071614;28;45061;-86
2021/12/05 03:20:49;;;;;;;;;0.00;0.00;;;;;;;;5090913;28;45429;-86
2021/12/05 03:23:14;;;;;;;;;0.00;0.00;;;;;;;;5072292;28;47583;-86
2021/12/05 03:25:40;;;;;;;;;1.00;0.00;;;;;;;;5071925;28;45243;-86
2021/12/05 03:28:05;;;;;;;;;0.00;0.00;;;;;;;;5072410;28;45183;-86
2021/12/05 03:30:30;;;;;;;;;0.00;0.00;;;;;;;;5072176;28;45228;-86
2021/12/05 03:32:56;;;;;;;;;0.00;0.00;;;;;;;;5071949;28;47271;-86
2021/12/05 03:35:23;;;;;;;;;0.00;0.00;;;;;;;;5071620;28;45096;-86
2021/12/05 03:37:49;;;;;;;;;0.00;0.00;;;;;;;;5071903;28;45078;-86
2021/12/05 03:40:15;;;;;;;;;0.00;0.00;;;;;;;;5071970;28;45266;-86
2021/12/05 03:42:40;;;;;;;;;0.00;0.00;;;;;;;;5072193;28;47137;-86
2021/12/05 03:45:09;;;;;;;;;0.00;0.00;;;;;;;;5072476;28;45522;-86
2021/12/05 03:47:34;;;;;;;;;0.00;0.00;;;;;;;;5071482;28;45187;-86
2021/12/05 03:50:00;;;;;;;;;0.00;0.00;;;;;;;;5072565;28;45063;-86
2021/12/05 03:52:25;;;;;;;;;0.00;0.00;;;;;;;;5070958;28;46753;-86
2021/12/05 03:54:50;;;;;;;;;0.00;0.00;;;;;;;;5072093;28;45073;-86
2021/12/05 03:57:15;;;;;;;;;0.00;0.00;;;;;;;;5071645;28;45334;-86
2021/12/05 03:59:41;;;;;;;;;0.00;0.00;;;;;;;;5071776;28;44976;-86
2021/12/05 04:02:07;;;;;;;;;0.00;0.00;;;;;;;;5071118;28;46887;-86
2021/12/05 04:04:33;;;;;;;;;0.00;0.00;;;;;;;;5071501;28;45945;-86
2021/12/05 04:06:59;;;;;;;;;0.00;0.00;;;;;;;;5071173;28;45015;-86
2021/12/05 04:09:24;;;;;;;;;0.00;0.00;;;;;;;;5090050;28;45236;-86
2021/12/05 04:11:59;;;;;;;;;0.00;0.00;;;;;;;;5071190;28;47049;-86
2021/12/05 04:14:26;;;;;;;;;0.00;0.00;;;;;;;;5071783;28;45218;-86
2021/12/05 04:16:52;;;;;;;;;0.00;0.00;;;;;;;;5070284;28;45166;-86
2021/12/05 04:19:17;;;;;;;;;0.00;0.00;;;;;;;;5071505;28;45239;-86
2021/12/05 04:21:42;;;;;;;;;0.00;0.00;;;;;;;;5071146;28;47045;-86
2021/12/05 04:24:09;;;;;;;;;0.00;0.00;;;;;;;;5089804;28;45235;-86
2021/12/05 04:26:35;;;;;;;;;0.00;0.00;;;;;;;;5070820;28;45744;-87
2021/12/05 04:29:01;;;;;;;;;0.00;0.00;;;;;;;;5071933;28;45407;-86
2021/12/05 04:31:27;;;;;;;;;0.00;0.00;;;;;;;;5069716;28;47197;-86
2021/12/05 04:33:52;;;;;;;;;0.00;0.00;;;;;;;;5071268;28;45478;-87
2021/12/05 04:36:18;;;;;;;;;0.00;0.00;;;;;;;;5071043;28;45056;-85
2021/12/05 04:38:44;;;;;;;;;0.00;0.00;;;;;;;;5070921;28;45048;-86
2021/12/05 04:41:09;;;;;;;;;0.00;0.00;;;;;;;;5071624;28;47225;-86
2021/12/05 04:43:38;;;;;;;;;0.00;0.00;;;;;;;;5089468;28;44847;-86
2021/12/05 04:46:17;;;;;;;;;0.00;0.00;;;;;;;;5071075;28;45217;-86
2021/12/05 04:48:46;;;;;;;;;0.00;0.00;;;;;;;;5071032;28;45284;-86
2021/12/05 04:51:11;;;;;;;;;0.00;0.00;;;;;;;;5070605;28;47082;-86
2021/12/05 04:53:36;;;;;;;;;0.00;0.00;;;;;;;;5070518;28;45191;-86
2021/12/05 04:56:02;;;;;;;;;0.00;0.00;;;;;;;;5071422;28;45395;-86
2021/12/05 04:58:27;;;;;;;;;0.25;0.00;;;;;;;;5070809;28;45223;-86
2021/12/05 05:00:57;;;;;;;;;0.00;0.00;;;;;;;;5070919;28;47454;-86
2021/12/05 05:03:22;;;;;;;;;0.00;0.00;;;;;;;;5070789;28;45391;-86
2021/12/05 05:05:53;;;;;;;;;0.00;0.00;;;;;;;;5070419;28;45075;-86
2021/12/05 05:08:19;;;;;;;;;0.00;0.00;;;;;;;;5070676;28;45642;-85
2021/12/05 05:10:45;;;;;;;;;0.00;0.00;;;;;;;;5071134;28;47779;-85
2021/12/05 05:13:10;;;;;;;;;0.00;0.00;;;;;;;;5070944;28;45100;-87
2021/12/05 05:15:36;;;;;;;;;0.00;0.00;;;;;;;;5070899;28;45115;-86
2021/12/05 05:18:03;;;;;;;;;0.00;0.00;;;;;;;;5070976;28;45119;-86
2021/12/05 05:20:40;;;;;;;;;0.00;0.00;;;;;;;;5069752;28;47647;-86
2021/12/05 05:49:16;;;;;;;;;0.00;0.00;;;;;;;;5092149;28;45086;-86
2021/12/05 05:51:42;;;;;;;;;0.00;0.00;;;;;;;;5072451;28;47614;-87
2021/12/05 05:54:07;;;;;;;;;2.00;0.00;;;;;;;;5073876;28;45374;-87
2021/12/05 05:56:34;;;;;;;;;0.00;0.00;;;;;;;;5073378;28;45084;-86
2021/12/05 05:59:13;;;;;;;;;0.00;0.00;;;;;;;;5073823;28;45164;-86
2021/12/05 06:01:58;;;;;;;;;0.00;0.00;;;;;;;;5073504;28;47252;-86
2021/12/05 06:04:26;;;;;;;;;0.00;0.00;;;;;;;;5072868;28;45424;-86
2021/12/05 06:06:51;;;;;;;;;0.00;0.00;;;;;;;;5063427;28;45830;-86
2021/12/05 06:09:17;;;;;;;;;0.00;0.00;;;;;;;;5053312;28;45081;-86
2021/12/05 06:11:42;;;;;;;;;0.00;0.00;;;;;;;;5053097;28;47443;-86
2021/12/05 06:14:07;;;;;;;;;0.00;0.00;;;;;;;;5069384;28;45039;-86
2021/12/05 06:16:32;;;;;;;;;0.00;0.00;;;;;;;;5073420;28;45352;-86
2021/12/05 06:18:58;;;;;;;;;1.00;1.00;;;;;;;;5073678;28;45360;-86
2021/12/05 06:21:23;;;;;;;;;1.00;0.33;;;;;;;;5072228;28;46766;-86
2021/12/05 06:23:49;;;;;;;;;1.00;1.00;;;;;;;;5073233;28;45024;-86
2021/12/05 06:26:22;;;;;;;;;0.25;0.25;;;;;;;;5073487;28;45135;-87
2021/12/05 06:28:57;;;;;;;;;1.00;1.00;;;;;;;;5072957;28;45020;-85
2021/12/05 06:37:09;;;;;;;;;0.25;0.25;;;;;;;;5091015;28;45241;-85
2021/12/05 06:47:43;;;;;;;;;0.00;0.00;;;;;;;;5090605;28;45316;-85
2021/12/05 06:50:08;;;;;;;;;0.33;0.00;;;;;;;;5072513;28;45306;-85
2021/12/05 06:52:33;;;;;;;;;1.00;0.33;;;;;;;;5072094;28;47278;-85
2021/12/05 06:54:59;;;;;;;;;0.00;0.00;;;;;;;;5059402;28;45585;-86
2021/12/05 06:57:24;;;;;;;;;0.00;0.00;;;;;;;;5049680;28;45457;-85
2021/12/05 06:59:49;;;;;;;;;0.00;0.00;;;;;;;;5083363;27;45329;-85
2021/12/05 07:02:15;;;;;;;;;1.50;1.00;;;;;;;;5083002;27;46080;-86
2021/12/05 07:07:20;;;;;;;;;0.75;0.75;;;;;;;;5070207;28;45024;-85
2021/12/05 07:09:46;;;;;;;;;5.00;4.00;;;;;;;;5069377;28;45333;-86
2021/12/05 07:14:50;;;;;;;;;2.00;1.00;;;;;;;;5082442;28;45473;-86
2021/12/05 07:22:41;;;;;;;;;0.00;0.00;;;;;;;;5089200;28;45566;-85
2021/12/05 07:43:42;;;;;;;;;1.00;1.00;;;;;;;;5084890;28;45517;-85
2021/12/05 07:46:07;;;;;;;;;1.33;1.00;;;;;;;;5066395;28;45415;-85
2021/12/05 07:48:35;;;;;;;;;1.00;0.25;;;;;;;;5064337;28;45407;-85
2021/12/05 07:51:10;;;;;;;;;1.00;0.50;;;;;;;;5066228;28;45214;-85
2021/12/05 07:54:05;;;;;;;;;1.75;1.00;;;;;;;;5069585;28;47234;-85
2021/12/05 08:15:16;;;;;;;;;1.75;1.75;;;;;;;;5085408;28;45310;-87
2021/12/05 08:17:49;;;;;;;;;1.00;1.00;;;;;;;;5066456;28;45340;-87
2021/12/05 08:20:15;;;;;;;;;3.00;2.00;;;;;;;;5085554;28;45120;-87
2021/12/05 08:22:40;;;;;;;;;2.25;1.25;;;;;;;;5065965;28;45486;-86
2021/12/05 08:25:11;;;;;;;;;1.33;1.33;;;;;;;;5086117;28;45412;-87
2021/12/05 08:27:40;;;;;;;;;1.50;1.25;;;;;;;;5067586;28;45406;-85
2021/12/05 08:30:10;;;;;;;;;4.00;3.50;;;;;;;;5070697;28;45134;-86
2021/12/05 08:32:52;;;;;;;;;1.00;1.00;;;;;;;;5057706;28;46213;-85
2021/12/05 08:35:45;;;;;;;;;1.00;1.00;;;;;;;;5051901;28;47377;-85
2021/12/05 10:06:49;;;;;;;;;8.50;7.25;;;;;;;;5068992;28;45834;-86
2021/12/05 10:15:14;;;;;;;;;3.50;3.00;;;;;;;;4967220;28;45617;-83
2021/12/05 10:18:11;;;;;;;;;2.00;2.00;;;;;;;;5022404;28;45527;-86
2021/12/05 10:37:19;;;;;;;;;6.00;6.00;;;;;;;;5072284;28;45791;-86
2021/12/05 10:39:45;;;;;;;;;11.00;9.25;;;;;;;;5054216;28;45557;-86
2021/12/05 10:42:36;;;;;;;;;4.75;4.25;;;;;;;;5054072;28;45546;-85
2021/12/05 10:45:03;;;;;;;;;5.50;5.00;;;;;;;;5054357;28;47971;-85
2021/12/05 10:47:36;;;;;;;;;3.00;3.00;;;;;;;;5044383;28;46256;-85
2021/12/05 10:50:21;;;;;;;;;3.00;3.00;;;;;;;;5033977;28;45415;-86
2021/12/05 10:52:46;;;;;;;;;2.75;2.00;;;;;;;;5033486;28;45563;-86
2021/12/05 10:55:11;;;;;;;;;5.33;5.33;;;;;;;;5033501;28;46913;-85
2021/12/05 10:57:41;;;;;;;;;3.00;2.33;;;;;;;;5051509;28;46174;-85
2021/12/05 11:00:11;;;;;;;;;5.00;5.00;;;;;;;;5033509;28;45388;-85
2021/12/05 11:02:37;;;;;;;;;2.75;2.75;;;;;;;;5051270;28;45929;-86
2021/12/05 11:05:02;;;;;;;;;3.00;2.25;;;;;;;;5033876;28;47250;-85
2021/12/05 11:07:27;;;;;;;;;6.00;4.25;;;;;;;;5033152;28;46105;-86
2021/12/05 11:09:59;;;;;;;;;5.67;5.33;;;;;;;;5033179;28;45812;-84
2021/12/05 11:12:27;;;;;;;;;4.00;4.00;;;;;;;;5033269;28;45631;-85
2021/12/05 11:14:57;;;;;;;;;4.25;3.75;;;;;;;;5033473;28;48109;-84
2021/12/05 11:17:27;;;;;;;;;4.25;3.50;;;;;;;;5032716;28;45794;-84
2021/12/05 11:19:59;;;;;;;;;4.25;4.25;;;;;;;;5033507;28;45728;-84
2021/12/05 11:22:27;;;;;;;;;8.00;7.00;;;;;;;;5045563;28;45599;-84
2021/12/05 11:24:54;;;;;;;;;3.00;3.00;;;;;;;;5069966;28;45914;-86
2021/12/05 11:27:22;;;;;;;;;8.00;6.00;;;;;;;;5066332;28;46892;-86
2021/12/05 11:30:00;;;;;;;;;3.25;3.25;;;;;;;;5035580;28;45861;-85
2021/12/05 11:32:33;;;;;;;;;3.75;3.75;;;;;;;;5054034;28;45456;-86
2021/12/05 11:35:08;;;;;;;;;5.75;5.25;;;;;;;;5035665;28;47125;-86
2021/12/05 11:37:47;;;;;;;;;4.25;4.25;;;;;;;;5053080;28;45745;-85
2021/12/05 11:40:12;;;;;;;;;6.00;6.00;;;;;;;;5034054;28;45814;-84
2021/12/05 11:42:49;;;;;;;;;3.00;3.00;;;;;;;;5052470;28;45685;-85
2021/12/05 11:45:14;;;;;;;;;3.75;3.75;;;;;;;;5035488;28;48437;-86
2021/12/05 11:47:39;;;;;;;;;3.67;2.67;;;;;;;;5032399;28;45948;-86
2021/12/05 11:50:06;;;;;;;;;3.00;3.00;;;;;;;;5037673;28;45326;-85
2021/12/05 11:52:36;;;;;;;;;4.25;4.25;;;;;;;;5036300;28;45537;-84
2021/12/05 11:55:02;;;;;;;;;4.25;4.25;;;;;;;;5054933;28;45533;-85
2021/12/05 11:57:27;;;;;;;;;7.00;4.75;;;;;;;;5036084;28;45431;-86
2021/12/05 11:59:57;;;;;;;;;4.33;3.00;;;;;;;;5043526;28;45149;-86
2021/12/05 12:02:24;;;;;;;;;3.25;3.25;;;;;;;;5061541;28;45355;-85
2021/12/05 12:04:50;;;;;;;;;4.25;3.75;;;;;;;;5034130;28;48250;-86
2021/12/05 12:07:37;;;;;;;;;4.33;4.33;;;;;;;;5033590;28;45457;-85
2021/12/05 12:10:05;;;;;;;;;5.00;3.00;;;;;;;;5037515;28;45362;-86
2021/12/05 12:12:30;;;;;;;;;1.25;1.25;;;;;;;;5034334;28;45874;-86
2021/12/05 12:14:56;;;;;;;;;1.00;1.00;;;;;;;;5038521;28;47838;-85
2021/12/05 12:17:21;;;;;;;;;1.00;0.00;;;;;;;;5037022;28;45326;-85
2021/12/05 12:19:47;;;;;;;;;1.25;1.25;;;;;;;;5032929;28;45519;-86
2021/12/05 12:22:13;;;;;;;;;1.75;1.75;;;;;;;;5050345;28;45360;-86
2021/12/05 12:24:40;;;;;;;;;2.00;2.00;;;;;;;;5030889;28;48177;-86
2021/12/05 12:27:05;;;;;;;;;2.50;2.00;;;;;;;;5031626;28;45735;-85
2021/12/05 12:29:31;;;;;;;;;2.25;2.00;;;;;;;;5031976;28;45439;-86
2021/12/05 12:32:03;;;;;;;;;2.00;2.00;;;;;;;;5050204;28;45655;-85
2021/12/05 12:34:28;;;;;;;;;3.00;3.00;;;;;;;;5030762;28;47564;-86
2021/12/05 12:37:03;;;;;;;;;2.00;2.00;;;;;;;;5032177;28;45423;-85
2021/12/05 12:39:31;;;;;;;;;2.00;1.50;;;;;;;;5031565;28;45465;-85
2021/12/05 12:42:05;;;;;;;;;1.00;1.00;;;;;;;;5033159;28;45589;-86
2021/12/05 12:44:31;;;;;;;;;1.00;1.00;;;;;;;;5049915;28;46527;-85
2021/12/05 12:46:57;;;;;;;;;2.00;2.00;;;;;;;;5031626;28;45495;-86
2021/12/05 12:49:25;;;;;;;;;3.00;2.00;;;;;;;;5031369;28;45609;-85
2021/12/05 12:51:50;;;;;;;;;3.50;3.50;;;;;;;;5032109;28;45802;-85
2021/12/05 12:54:21;;;;;;;;;2.50;2.50;;;;;;;;5031200;28;47914;-86
2021/12/05 12:57:05;;;;;;;;;2.00;2.00;;;;;;;;5029095;28;45903;-86
2021/12/05 12:59:32;;;;;;;;;3.75;2.50;;;;;;;;5026143;28;45723;-85
2021/12/05 13:02:26;;;;;;;;;5.00;5.00;;;;;;;;5032143;28;45714;-86
2021/12/05 13:05:52;;;;;;;;;5.00;3.50;;;;;;;;5049486;28;45471;-85
2021/12/05 13:10:34;;;;;;;;;5.50;5.50;;;;;;;;5051145;28;45509;-85
2021/12/05 13:13:02;;;;;;;;;1.50;1.50;;;;;;;;5032224;28;45541;-87
2021/12/05 13:15:30;;;;;;;;;2.75;2.50;;;;;;;;5031564;28;47837;-85
2021/12/05 13:18:00;;;;;;;;;3.50;3.00;;;;;;;;5049689;28;45669;-85
2021/12/05 13:20:41;;;;;;;;;7.00;6.00;;;;;;;;5031416;28;45404;-88
2021/12/05 13:23:08;;;;;;;;;4.75;4.25;;;;;;;;5049565;28;45617;-88
2021/12/05 13:25:36;;;;;;;;;6.25;6.00;;;;;;;;5032551;28;48324;-82
2021/12/05 13:28:20;;;;;;;;;7.00;7.00;;;;;;;;5049787;28;45659;-86
2021/12/05 13:30:45;;;;;;;;;12.00;12.00;;;;;;;;5031218;28;45599;-88
2021/12/05 13:33:24;;;;;;;;;3.50;3.00;;;;;;;;5032310;28;45462;-85
2021/12/05 13:35:53;;;;;;;;;3.00;3.00;;;;;;;;5031574;28;48084;-84
2021/12/05 13:38:29;;;;;;;;;4.00;4.00;;;;;;;;5049156;28;45613;-85
2021/12/05 13:40:56;;;;;;;;;4.00;4.00;;;;;;;;5031865;28;45474;-87
2021/12/05 13:43:28;;;;;;;;;4.25;4.00;;;;;;;;5049300;28;45709;-85
2021/12/05 13:45:56;;;;;;;;;7.00;7.00;;;;;;;;5051480;28;45643;-90
2021/12/05 13:48:29;;;;;;;;;3.50;3.00;;;;;;;;5032083;28;45476;-89
2021/12/05 13:50:56;;;;;;;;;4.00;4.00;;;;;;;;5032942;28;45659;-89
2021/12/05 13:53:25;;;;;;;;;4.25;4.25;;;;;;;;5031236;28;45456;-89
2021/12/05 13:55:53;;;;;;;;;4.00;3.25;;;;;;;;5031446;28;47935;-87
2021/12/05 13:58:43;;;;;;;;;7.50;7.50;;;;;;;;5031282;28;45486;-86
2021/12/05 14:01:09;;;;;;;;;4.00;4.00;;;;;;;;5034469;28;45383;-87
2021/12/05 14:03:48;;;;;;;;;6.33;4.67;;;;;;;;5034559;28;45571;-87
2021/12/05 14:06:25;;;;;;;;;4.00;3.00;;;;;;;;5034492;28;47875;-88
2021/12/05 14:08:52;;;;;;;;;4.50;3.00;;;;;;;;5035046;28;45894;-88
2021/12/05 14:11:17;;;;;;;;;4.00;3.00;;;;;;;;5053212;28;45503;-87
2021/12/05 14:13:43;;;;;;;;;3.00;3.00;;;;;;;;5034625;28;45651;-87
2021/12/05 14:16:08;;;;;;;;;4.00;4.00;;;;;;;;5034455;28;48170;-86
2021/12/05 14:18:33;;;;;;;;;6.00;4.00;;;;;;;;5033655;28;45784;-88
2021/12/05 14:21:16;;;;;;;;;6.00;4.00;;;;;;;;5034653;28;45313;-87
2021/12/05 14:23:51;;;;;;;;;7.00;6.00;;;;;;;;5034050;28;45441;-87
2021/12/05 14:26:19;;;;;;;;;6.75;6.00;;;;;;;;5035075;28;47115;-87
2021/12/05 14:28:53;;;;;;;;;2.75;2.75;;;;;;;;5034407;28;45897;-86
2021/12/05 14:31:25;;;;;;;;;3.25;3.25;;;;;;;;5034236;28;45380;-87
2021/12/05 14:33:51;;;;;;;;;3.25;2.75;;;;;;;;5034843;28;45605;-88
2021/12/05 14:36:28;;;;;;;;;3.25;2.50;;;;;;;;5034423;28;47222;-87
2021/12/05 14:39:05;;;;;;;;;4.00;4.00;;;;;;;;5052318;28;45328;-87
2021/12/05 14:41:31;;;;;;;;;2.75;2.00;;;;;;;;5033562;28;45512;-87
2021/12/05 14:43:57;;;;;;;;;2.00;2.00;;;;;;;;5034811;28;45588;-87
2021/12/05 14:46:22;;;;;;;;;4.50;3.75;;;;;;;;5033584;28;48077;-87
2021/12/05 14:48:53;;;;;;;;;4.00;4.00;;;;;;;;5051901;28;45697;-88
2021/12/05 14:51:30;;;;;;;;;4.00;4.00;;;;;;;;5034928;28;45355;-87
2021/12/05 14:53:55;;;;;;;;;4.00;4.00;;;;;;;;5037529;28;45479;-88
2021/12/05 14:56:29;;;;;;;;;2.00;1.33;;;;;;;;5053833;28;46908;-87
2021/12/05 14:59:05;;;;;;;;;4.00;3.00;;;;;;;;5040771;28;45372;-87
2021/12/05 15:01:31;;;;;;;;;1.75;1.75;;;;;;;;5038751;28;45601;-88
2021/12/05 15:03:56;;;;;;;;;3.00;3.00;;;;;;;;5036082;28;45529;-83
2021/12/05 15:06:29;;;;;;;;;3.50;3.50;;;;;;;;5049663;28;45990;-83
2021/12/05 15:08:54;;;;;;;;;6.00;4.00;;;;;;;;5049791;28;46001;-85
2021/12/05 15:11:19;;;;;;;;;4.67;3.33;;;;;;;;5060830;28;45497;-85
2021/12/05 15:13:45;;;;;;;;;7.00;6.00;;;;;;;;5033533;28;45557;-85
2021/12/05 15:16:10;;;;;;;;;8.00;7.33;;;;;;;;5057066;28;46327;-85
2021/12/05 15:18:39;;;;;;;;;6.00;5.33;;;;;;;;5038202;28;45152;-84
2021/12/05 15:21:04;;;;;;;;;7.25;6.00;;;;;;;;5069607;28;45277;-85
2021/12/05 15:23:30;;;;;;;;;7.00;7.00;;;;;;;;5049833;28;45578;-85
2021/12/05 15:25:58;;;;;;;;;1.75;1.75;;;;;;;;5038240;28;47410;-85
2021/12/05 15:28:23;;;;;;;;;2.50;2.00;;;;;;;;5039891;28;45590;-85
2021/12/05 15:30:49;;;;;;;;;3.00;3.00;;;;;;;;5052145;28;45225;-82
2021/12/05 15:33:15;;;;;;;;;8.25;6.00;;;;;;;;5022289;28;45339;-85
2021/12/05 15:35:43;;;;;;;;;3.50;3.00;;;;;;;;5041464;28;46784;-84
2021/12/05 15:38:10;;;;;;;;;4.00;4.00;;;;;;;;5054960;28;45699;-86
2021/12/05 15:40:36;;;;;;;;;4.00;3.00;;;;;;;;5034014;28;45703;-82
2021/12/05 15:43:04;;;;;;;;;5.00;4.00;;;;;;;;5054128;28;45409;-84
2021/12/05 15:45:30;;;;;;;;;3.00;3.00;;;;;;;;5050725;28;46129;-86
2021/12/05 15:47:55;;;;;;;;;4.00;4.00;;;;;;;;5064692;28;45756;-85
2021/12/05 15:50:25;;;;;;;;;4.00;4.00;;;;;;;;5071672;28;45482;-83
2021/12/05 15:52:52;;;;;;;;;6.75;6.75;;;;;;;;5052973;28;45625;-84
2021/12/05 15:55:21;;;;;;;;;7.75;7.00;;;;;;;;5070956;28;45548;-85
2021/12/05 15:57:48;;;;;;;;;9.75;8.50;;;;;;;;5053929;28;45387;-83
2021/12/05 16:00:30;;;;;;;;;3.75;3.75;;;;;;;;5034514;28;45408;-82
2021/12/05 16:03:03;;;;;;;;;5.75;5.00;;;;;;;;5035820;28;45551;-85
2021/12/05 16:05:29;;;;;;;;;4.50;4.50;;;;;;;;5060551;28;46505;-84
2021/12/05 16:08:00;;;;;;;;;7.50;6.00;;;;;;;;5058865;28;45360;-85
2021/12/05 16:10:25;;;;;;;;;6.50;6.00;;;;;;;;5037113;28;45453;-85
2021/12/05 16:12:52;;;;;;;;;6.67;6.67;;;;;;;;5036626;28;45469;-84
2021/12/05 16:15:18;;;;;;;;;6.25;5.50;;;;;;;;5033498;28;47091;-84
2021/12/05 16:17:51;;;;;;;;;8.00;6.00;;;;;;;;5053083;28;45440;-85
2021/12/05 16:20:21;;;;;;;;;4.25;3.25;;;;;;;;5054982;28;45138;-83
2021/12/05 16:23:10;;;;;;;;;7.75;6.00;;;;;;;;5054957;28;45379;-85
2021/12/05 16:25:39;;;;;;;;;7.00;7.00;;;;;;;;5038215;28;47229;-84
2021/12/05 16:28:11;;;;;;;;;6.50;6.50;;;;;;;;5065552;28;45282;-85
2021/12/05 16:30:39;;;;;;;;;6.50;6.50;;;;;;;;5053075;28;45380;-84
2021/12/05 16:33:05;;;;;;;;;7.75;7.50;;;;;;;;5054195;28;45676;-84
2021/12/05 16:35:35;;;;;;;;;8.50;7.75;;;;;;;;5051134;28;47017;-84
2021/12/05 16:38:16;;;;;;;;;8.25;8.25;;;;;;;;5046487;28;45223;-83
2021/12/05 16:41:02;;;;;;;;;8.00;7.25;;;;;;;;5041275;28;45602;-84
2021/12/05 16:43:28;;;;;;;;;8.00;8.00;;;;;;;;5035206;28;45543;-84
2021/12/05 16:45:55;;;;;;;;;8.50;8.50;;;;;;;;5066324;28;47467;-84
2021/12/05 16:48:21;;;;;;;;;11.00;11.00;;;;;;;;5084814;28;45094;-84
2021/12/05 16:50:46;;;;;;;;;9.25;8.75;;;;;;;;5067919;28;45342;-83
2021/12/05 16:53:13;;;;;;;;;11.00;10.75;;;;;;;;5071419;28;45480;-84
2021/12/05 16:55:42;;;;;;;;;11.00;10.50;;;;;;;;5070758;28;47489;-84
2021/12/05 16:58:17;;;;;;;;;13.00;11.00;;;;;;;;5063816;28;45535;-83
2021/12/05 17:00:44;;;;;;;;;9.75;7.50;;;;;;;;5062288;28;45300;-84
2021/12/05 17:03:15;;;;;;;;;7.75;7.50;;;;;;;;5071236;28;45305;-84
2021/12/05 17:05:45;;;;;;;;;9.25;7.75;;;;;;;;5068234;28;47395;-82
2021/12/05 17:08:16;;;;;;;;;8.75;7.25;;;;;;;;5068783;28;45657;-83
2021/12/05 17:10:44;;;;;;;;;11.25;9.75;;;;;;;;5088434;28;45188;-84
2021/12/05 17:13:14;;;;;;;;;9.50;8.50;;;;;;;;5089048;28;45317;-84
2021/12/05 17:15:45;;;;;;;;;8.50;8.25;;;;;;;;5086322;28;45881;-84
2021/12/05 17:18:19;;;;;;;;;13.25;12.00;;;;;;;;5086399;28;46034;-83
2021/12/05 17:21:04;;;;;;;;;8.25;8.25;;;;;;;;5051665;28;45398;-84
2021/12/05 17:23:32;;;;;;;;;12.00;12.00;;;;;;;;5069305;28;45435;-82
2021/12/05 17:26:06;;;;;;;;;10.75;9.00;;;;;;;;5070184;28;45848;-83
2021/12/05 17:28:31;;;;;;;;;9.75;8.25;;;;;;;;5069344;28;45357;-83
2021/12/05 17:30:58;;;;;;;;;11.67;11.33;;;;;;;;5068000;28;45736;-83
2021/12/05 17:33:28;;;;;;;;;9.75;9.00;;;;;;;;5051281;28;45700;-83
2021/12/05 17:35:53;;;;;;;;;11.75;11.00;;;;;;;;5073044;28;46584;-83
2021/12/05 17:38:29;;;;;;;;;11.25;10.75;;;;;;;;5054361;28;45466;-82
2021/12/05 17:40:55;;;;;;;;;7.50;5.75;;;;;;;;5072788;28;45480;-83
2021/12/05 17:43:23;;;;;;;;;10.33;8.67;;;;;;;;5072768;28;45401;-83
2021/12/05 17:45:48;;;;;;;;;8.75;7.50;;;;;;;;5038939;28;48057;-83
2021/12/05 17:48:13;;;;;;;;;12.00;9.00;;;;;;;;5034297;28;45420;-83
2021/12/05 17:50:41;;;;;;;;;11.25;10.50;;;;;;;;5052528;28;45497;-83
2021/12/05 17:53:06;;;;;;;;;11.00;9.75;;;;;;;;5053374;28;45854;-82
2021/12/05 17:55:38;;;;;;;;;13.00;12.00;;;;;;;;5035265;28;47807;-83
2021/12/05 17:58:19;;;;;;;;;12.25;11.25;;;;;;;;5052983;28;45671;-83
2021/12/05 18:00:57;;;;;;;;;12.00;10.75;;;;;;;;5052933;28;45466;-84
2021/12/05 18:03:22;;;;;;;;;13.50;13.50;;;;;;;;5059568;28;45514;-84
2021/12/05 18:05:49;;;;;;;;;17.00;16.25;;;;;;;;5053797;28;47411;-84
2021/12/05 18:08:17;;;;;;;;;15.00;14.25;;;;;;;;5054629;28;45772;-84
2021/12/05 18:10:48;;;;;;;;;12.25;12.25;;;;;;;;5054868;28;45573;-84
2021/12/05 18:13:13;;;;;;;;;18.00;15.00;;;;;;;;5053902;28;45511;-85
2021/12/05 18:15:46;;;;;;;;;18.50;16.50;;;;;;;;5038160;28;47253;-82
2021/12/05 18:18:13;;;;;;;;;19.00;18.75;;;;;;;;5052738;28;45620;-83
2021/12/05 18:20:38;;;;;;;;;13.50;11.25;;;;;;;;5051750;28;45660;-83
2021/12/05 18:23:05;;;;;;;;;9.00;9.00;;;;;;;;5040687;28;45680;-82
2021/12/05 18:25:31;;;;;;;;;12.00;12.00;;;;;;;;5053107;28;46485;-83
2021/12/05 18:27:57;;;;;;;;;16.25;14.00;;;;;;;;5053540;28;46420;-83
2021/12/05 18:30:23;;;;;;;;;13.75;12.50;;;;;;;;5072569;28;45892;-84
2021/12/05 18:32:49;;;;;;;;;13.00;11.75;;;;;;;;5054510;28;45507;-84
2021/12/05 18:35:15;;;;;;;;;18.75;16.75;;;;;;;;5052574;28;47273;-82
2021/12/05 18:37:42;;;;;;;;;13.50;13.00;;;;;;;;5060323;28;45333;-83
2021/12/05 18:40:08;;;;;;;;;13.25;12.00;;;;;;;;5053666;28;45432;-84
2021/12/05 18:42:33;;;;;;;;;12.75;12.50;;;;;;;;5053577;28;45439;-84
2021/12/05 18:45:02;;;;;;;;;12.25;12.25;;;;;;;;5053687;28;47482;-83
2021/12/05 18:47:28;;;;;;;;;14.50;13.00;;;;;;;;5071827;28;45443;-83
2021/12/05 18:49:53;;;;;;;;;18.00;15.75;;;;;;;;5053621;28;45396;-83
2021/12/05 18:52:19;;;;;;;;;12.00;12.00;;;;;;;;5072284;28;45536;-83
2021/12/05 18:54:46;;;;;;;;;23.75;20.00;;;;;;;;5071827;28;45438;-84
2021/12/05 18:57:13;;;;;;;;;13.75;13.00;;;;;;;;5053582;28;45875;-84
2021/12/05 18:59:46;;;;;;;;;16.50;14.25;;;;;;;;5071671;28;45421;-84
2021/12/05 19:04:59;;;;;;;;;19.00;18.00;;;;;;;;5071781;28;45796;-84
2021/12/05 19:07:30;;;;;;;;;18.75;16.75;;;;;;;;5072011;28;45813;-84
2021/12/05 19:11:42;;;;;;;;;19.50;18.75;;;;;;;;5072373;28;45437;-84
2021/12/05 19:12:46;;;;;;;;;21.75;20.00;;;;;;;;5071483;28;45574;-84
2021/12/05 19:15:14;;;;;;;;;18.00;17.00;;;;;;;;5053268;28;46861;-84
2021/12/05 19:17:41;;;;;;;;;13.75;13.00;;;;;;;;5055356;28;45463;-84
2021/12/05 19:20:17;;;;;;;;;14.50;12.50;;;;;;;;5070836;28;45218;-85
2021/12/05 19:22:42;;;;;;;;;14.00;13.25;;;;;;;;5068449;28;45345;-84
2021/12/05 19:25:10;;;;;;;;;12.00;12.00;;;;;;;;5091072;28;45792;-84
2021/12/05 19:27:36;;;;;;;;;13.50;12.50;;;;;;;;5071244;28;45363;-84
2021/12/05 19:30:02;;;;;;;;;12.50;12.00;;;;;;;;5090812;28;45246;-83
2021/12/05 19:32:28;;;;;;;;;16.75;14.25;;;;;;;;5089723;28;45255;-84
2021/12/05 19:34:53;;;;;;;;;18.75;14.25;;;;;;;;5071723;28;47451;-83
2021/12/05 19:37:19;;;;;;;;;13.75;12.75;;;;;;;;5089408;28;44934;-83
2021/12/05 19:39:45;;;;;;;;;15.75;14.00;;;;;;;;5071641;28;45026;-83
2021/12/05 19:42:10;;;;;;;;;16.00;13.75;;;;;;;;5085478;28;45580;-83
2021/12/05 19:44:36;;;;;;;;;11.00;11.00;;;;;;;;5065289;28;47377;-84
2021/12/05 19:47:03;;;;;;;;;16.75;14.25;;;;;;;;5043808;28;46239;-83
2021/12/05 19:49:30;;;;;;;;;11.50;11.50;;;;;;;;5022768;28;45456;-83
2021/12/05 19:51:55;;;;;;;;;14.50;12.00;;;;;;;;5039918;28;45545;-83
2021/12/05 19:54:21;;;;;;;;;11.75;9.00;;;;;;;;5021319;28;48234;-84
2021/12/05 19:56:46;;;;;;;;;11.75;11.50;;;;;;;;5026882;28;45534;-83
2021/12/05 19:59:13;;;;;;;;;9.25;9.25;;;;;;;;5039202;28;45470;-83
2021/12/05 20:01:39;;;;;;;;;16.00;14.75;;;;;;;;5050735;28;45546;-83
2021/12/05 20:04:04;;;;;;;;;13.50;13.00;;;;;;;;5049578;28;48005;-83
2021/12/05 20:06:30;;;;;;;;;12.75;12.25;;;;;;;;5030597;28;45795;-83
2021/12/05 20:08:56;;;;;;;;;13.00;13.00;;;;;;;;5040109;28;45800;-84
2021/12/05 20:11:21;;;;;;;;;12.00;11.50;;;;;;;;5031505;28;45936;-82
2021/12/05 20:13:46;;;;;;;;;9.00;8.50;;;;;;;;5052335;28;46939;-83